createdAt,value
2023-03-11T00:01:03.017Z,100018.84
2023-03-11T00:03:29.536Z,100036.59
2023-03-11T00:05:58.528Z,100047.91
2023-03-11T00:08:25.703Z,100038.59
2023-03-11T00:10:55.328Z,100068.41
2023-03-11T00:13:28.146Z,100036.75
2023-03-11T00:15:56.264Z,100038.50
2023-03-11T00:18:28.089Z,100079.53
2023-03-11T00:20:56.110Z,100060.94
2023-03-11T00:23:23.128Z,100078.94
2023-03-11T00:25:49.644Z,100090.16
2023-03-11T00:28:17.160Z,100059.31
2023-03-11T00:30:45.649Z,100074.50
2023-03-11T00:33:15.983Z,100093.81
2023-03-11T00:35:43.795Z,100086.44
2023-03-11T00:38:15.280Z,100081.78
2023-03-11T00:40:42.960Z,100080.72
2023-03-11T00:43:10.711Z,100096.38
2023-03-11T00:45:37.154Z,100109.34
2023-03-11T00:48:04.581Z,100100.03
2023-03-11T00:50:33.633Z,100118.22
2023-03-11T00:53:00.431Z,100120.81
2023-03-11T00:55:30.234Z,100123.84
2023-03-11T00:58:02.926Z,100122.69
2023-03-11T01:00:30.792Z,100124.31
2023-03-11T01:02:57.655Z,100123.38
2023-03-11T01:05:27.940Z,100155.09
2023-03-11T01:07:57.796Z,100149.25
2023-03-11T01:10:25.271Z,100119.66
2023-03-11T01:12:51.789Z,100088.88
2023-03-11T01:15:25.120Z,100145.59
2023-03-11T01:17:51.540Z,100147.84
2023-03-11T01:20:18.363Z,100156.00
2023-03-11T01:22:45.019Z,100168.19
2023-03-11T01:25:16.061Z,100145.47
2023-03-11T01:27:43.075Z,100171.81
2023-03-11T01:30:12.882Z,100159.84
2023-03-11T01:32:39.434Z,100180.69
2023-03-11T01:35:06.346Z,100152.38
2023-03-11T01:37:32.882Z,100179.03
2023-03-11T01:39:59.338Z,100186.13
2023-03-11T01:42:25.859Z,100196.22
2023-03-11T01:44:52.313Z,100186.13
2023-03-11T01:47:41.108Z,100186.69
2023-03-11T01:50:12.641Z,100198.78
2023-03-11T01:52:40.062Z,100184.63
2023-03-11T01:55:07.241Z,100196.25
2023-03-11T01:57:33.894Z,100190.84
2023-03-11T02:00:05.971Z,100212.50
2023-03-11T02:02:49.262Z,100211.31
2023-03-11T02:05:20.855Z,100193.66
2023-03-11T02:07:49.283Z,100216.72
2023-03-11T02:10:17.282Z,100212.03
2023-03-11T02:12:45.317Z,100214.94
2023-03-11T02:15:13.087Z,100217.41
2023-03-11T02:17:40.788Z,100213.56
2023-03-11T02:20:29.848Z,100195.31
2023-03-11T02:22:57.351Z,100130.34
2023-03-11T02:25:45.730Z,100233.41
2023-03-11T02:28:15.513Z,100205.47
2023-03-11T02:30:43.903Z,100214.06
2023-03-11T02:33:12.104Z,100214.56
2023-03-11T02:35:38.582Z,100222.28
2023-03-11T02:38:05.109Z,100228.09
2023-03-11T02:40:35.234Z,100234.88
2023-03-11T02:43:05.191Z,100201.72
2023-03-11T02:45:32.198Z,100215.38
2023-03-11T02:48:00.483Z,100238.22
2023-03-11T02:50:28.976Z,100220.41
2023-03-11T02:52:55.998Z,100231.69
2023-03-11T02:55:22.556Z,100215.88
2023-03-11T02:57:49.156Z,100241.84
2023-03-11T03:00:17.845Z,100245.09
2023-03-11T03:02:45.787Z,100239.59
2023-03-11T03:05:13.348Z,100250.81
2023-03-11T03:07:39.793Z,100256.06
2023-03-11T03:10:06.762Z,100256.63
2023-03-11T03:12:33.475Z,100257.00
2023-03-11T03:14:59.910Z,100268.34
2023-03-11T03:17:26.574Z,100247.91
2023-03-11T03:19:53.083Z,100268.22
2023-03-11T03:22:19.616Z,100257.81
2023-03-11T03:24:46.142Z,100265.56
2023-03-11T03:27:12.602Z,100263.56
2023-03-11T03:29:39.058Z,100256.63
2023-03-11T03:32:05.914Z,100274.16
2023-03-11T03:34:32.475Z,100275.13
2023-03-11T03:36:58.900Z,100281.09
2023-03-11T03:39:25.339Z,100267.16
2023-03-11T03:41:51.760Z,100271.25
2023-03-11T03:44:18.297Z,100294.56
2023-03-11T03:46:44.842Z,100298.31
2023-03-11T03:49:11.291Z,100292.47
2023-03-11T03:51:37.743Z,100300.78
2023-03-11T03:54:04.455Z,100297.47
2023-03-11T03:56:30.885Z,100286.69
2023-03-11T03:58:57.309Z,100305.44
2023-03-11T04:01:23.727Z,100290.88
2023-03-11T04:03:50.298Z,100312.66
2023-03-11T04:06:25.627Z,100277.44
2023-03-11T04:08:54.067Z,100309.75
2023-03-11T04:11:21.457Z,100315.94
2023-03-11T04:13:48.030Z,100310.44
2023-03-11T04:16:20.787Z,100300.81
2023-03-11T04:18:47.703Z,100327.88
2023-03-11T04:21:14.194Z,100331.69
2023-03-11T04:23:40.667Z,100343.31
2023-03-11T04:26:07.141Z,100334.88
2023-03-11T04:28:33.679Z,100337.56
2023-03-11T04:31:00.147Z,100332.13
2023-03-11T04:33:26.569Z,100331.66
2023-03-11T04:35:53.040Z,100345.81
2023-03-11T04:38:19.535Z,100346.63
2023-03-11T04:40:45.977Z,100351.69
2023-03-11T04:43:12.464Z,100348.72
2023-03-11T04:45:40.040Z,100362.59
2023-03-11T04:48:06.705Z,100355.53
2023-03-11T04:50:33.174Z,100357.88
2023-03-11T04:52:59.596Z,100357.31
2023-03-11T04:55:26.240Z,100365.75
2023-03-11T04:57:52.653Z,100367.09
2023-03-11T05:00:24.586Z,100366.72
2023-03-11T05:02:51.559Z,100381.59
2023-03-11T05:05:21.142Z,100379.44
2023-03-11T05:07:47.931Z,100374.44
2023-03-11T05:10:15.261Z,100381.00
2023-03-11T05:12:41.657Z,100391.28
2023-03-11T05:15:08.315Z,100389.50
2023-03-11T05:17:34.765Z,100402.34
2023-03-11T05:20:01.221Z,100397.59
2023-03-11T05:22:27.606Z,100407.25
2023-03-11T05:24:54.012Z,100390.91
2023-03-11T05:27:21.303Z,100416.38
2023-03-11T05:29:47.784Z,100420.66
2023-03-11T05:32:14.314Z,100407.91
2023-03-11T05:34:43.519Z,100418.56
2023-03-11T05:37:09.979Z,100429.84
2023-03-11T05:39:37.761Z,100432.06
2023-03-11T05:42:13.301Z,100435.84
2023-03-11T05:44:39.808Z,100418.56
2023-03-11T05:47:06.370Z,100441.69
2023-03-11T05:49:33.106Z,100443.53
2023-03-11T05:51:59.571Z,100446.22
2023-03-11T05:54:26.309Z,100442.38
2023-03-11T05:56:53.050Z,100448.13
2023-03-11T05:59:19.766Z,100454.16
2023-03-11T06:01:46.371Z,100437.53
2023-03-11T06:04:13.221Z,100438.25
2023-03-11T06:06:41.453Z,100456.53
2023-03-11T06:09:12.657Z,100455.31
2023-03-11T06:11:39.064Z,100446.38
2023-03-11T06:14:05.595Z,100455.72
2023-03-11T06:16:32.049Z,100462.47
2023-03-11T06:19:00.656Z,100467.44
2023-03-11T06:21:27.185Z,100450.16
2023-03-11T06:23:53.838Z,100454.03
2023-03-11T06:26:21.791Z,100464.53
2023-03-11T06:28:49.418Z,100477.69
2023-03-11T06:31:19.522Z,100482.53
2023-03-11T06:33:47.109Z,100465.06
2023-03-11T06:36:16.404Z,100485.84
2023-03-11T06:38:43.281Z,100495.16
2023-03-11T06:41:10.578Z,100494.63
2023-03-11T06:43:37.230Z,100488.06
2023-03-11T06:46:18.758Z,100498.19
2023-03-11T06:48:47.862Z,100506.13
2023-03-11T06:51:14.477Z,100507.59
2023-03-11T06:53:41.423Z,100498.03
2023-03-11T06:56:13.308Z,100507.34
2023-03-11T06:58:42.088Z,100520.59
2023-03-11T07:01:16.059Z,100520.34
2023-03-11T07:03:43.182Z,100528.19
2023-03-11T07:06:17.848Z,100523.97
2023-03-11T07:08:46.514Z,100536.84
2023-03-11T07:11:15.854Z,100546.81
2023-03-11T07:13:43.042Z,100546.34
2023-03-11T07:16:24.018Z,100546.34
2023-03-11T07:18:52.105Z,100556.25
2023-03-11T07:21:21.327Z,100552.19
2023-03-11T07:23:51.677Z,100542.41
2023-03-11T07:26:18.732Z,100558.56
2023-03-11T07:28:45.678Z,100552.22
2023-03-11T07:31:16.643Z,100570.03
2023-03-11T07:33:43.636Z,100571.47
2023-03-11T07:36:16.630Z,100577.31
2023-03-11T07:38:44.099Z,100567.66
2023-03-11T07:41:12.387Z,100574.88
2023-03-11T07:43:40.145Z,100582.91
2023-03-11T07:46:16.792Z,100590.50
2023-03-11T07:48:43.242Z,100581.78
2023-03-11T07:51:16.069Z,100575.59
2023-03-11T07:53:43.099Z,100596.28
2023-03-11T07:56:11.749Z,100602.75
2023-03-11T07:58:38.813Z,100607.41
2023-03-11T08:01:10.644Z,100609.59
2023-03-11T08:03:38.506Z,100622.94
2023-03-11T08:06:16.060Z,100615.53
2023-03-11T08:08:43.422Z,100618.94
2023-03-11T08:11:11.207Z,100629.63
2023-03-11T08:13:37.676Z,100623.66
2023-03-11T08:16:06.099Z,100618.31
2023-03-11T08:18:32.873Z,100619.31
2023-03-11T08:20:59.923Z,100633.00
2023-03-11T08:23:26.380Z,100636.00
2023-03-11T08:25:52.798Z,100653.06
2023-03-11T08:28:21.935Z,100650.50
2023-03-11T08:30:48.524Z,100659.66
2023-03-11T08:33:14.963Z,100641.16
2023-03-11T08:35:41.422Z,100656.69
2023-03-11T08:38:08.129Z,100666.75
2023-03-11T08:40:34.629Z,100655.44
2023-03-11T08:43:01.081Z,100659.03
2023-03-11T08:45:27.501Z,100668.81
2023-03-11T08:47:54.101Z,100670.66
2023-03-11T08:50:20.702Z,100672.00
2023-03-11T08:52:47.572Z,100671.22
2023-03-11T08:55:17.801Z,100676.19
2023-03-11T08:57:44.780Z,100663.50
2023-03-11T09:00:13.386Z,100664.94
2023-03-11T09:02:41.814Z,100677.91
2023-03-11T09:05:09.206Z,100676.03
2023-03-11T09:07:36.096Z,100662.63
2023-03-11T09:10:02.709Z,100661.88
2023-03-11T09:12:30.299Z,100653.72
2023-03-11T09:14:56.740Z,100669.47
2023-03-11T09:17:23.387Z,100654.03
2023-03-11T09:19:50.008Z,100662.16
2023-03-11T09:22:16.451Z,100667.69
2023-03-11T09:24:42.866Z,100663.03
2023-03-11T09:27:09.283Z,100669.16
2023-03-11T09:29:35.755Z,100670.69
2023-03-11T09:32:02.204Z,100659.31
2023-03-11T09:34:28.633Z,100680.25
2023-03-11T09:36:55.025Z,100677.44
2023-03-11T09:39:21.546Z,100683.44
2023-03-11T09:42:17.798Z,100674.75
2023-03-11T09:45:24.853Z,100681.94
2023-03-11T09:47:57.190Z,100688.19
2023-03-11T09:50:31.383Z,100698.41
2023-03-11T09:52:58.054Z,100697.13
2023-03-11T09:55:39.642Z,100700.44
2023-03-11T09:58:17.753Z,100688.75
2023-03-11T10:00:44.738Z,100694.31
2023-03-11T10:03:26.485Z,100704.13
2023-03-11T10:05:58.560Z,100698.00
2023-03-11T10:08:33.020Z,100698.78
2023-03-11T10:11:21.476Z,100695.75
2023-03-11T10:14:02.009Z,100700.06
2023-03-11T10:16:51.255Z,100705.66
2023-03-11T10:19:46.764Z,100698.03
2023-03-11T10:22:38.583Z,100700.47
2023-03-11T10:25:17.170Z,100697.69
2023-03-11T10:27:51.884Z,100706.03
2023-03-11T10:30:33.774Z,100701.22
2023-03-11T10:33:04.779Z,100702.22
2023-03-11T10:35:41.438Z,100719.00
2023-03-11T10:38:15.025Z,100718.81
2023-03-11T10:40:45.125Z,100717.97
2023-03-11T10:43:17.148Z,100718.41
2023-03-11T10:45:45.872Z,100723.59
2023-03-11T10:48:17.667Z,100716.41
2023-03-11T10:51:12.831Z,100728.03
2023-03-11T10:53:52.040Z,100719.84
2023-03-11T10:56:31.074Z,100722.72
2023-03-11T10:58:58.875Z,100731.44
2023-03-11T11:01:26.288Z,100726.69
2023-03-11T11:03:55.863Z,100724.28
2023-03-11T11:06:26.700Z,100731.09
2023-03-11T11:09:11.613Z,100738.22
2023-03-11T11:11:39.528Z,100720.00
2023-03-11T11:14:06.174Z,100733.88
2023-03-11T11:16:35.094Z,100722.59
2023-03-11T11:19:08.024Z,100721.19
2023-03-11T11:21:45.413Z,100714.97
2023-03-11T11:24:25.369Z,100709.91
2023-03-11T11:27:19.005Z,100716.78
2023-03-11T11:29:46.628Z,100713.69
2023-03-11T11:32:21.995Z,100714.34
2023-03-11T11:34:57.518Z,100706.72
2023-03-11T11:37:26.988Z,100644.09
2023-03-11T11:39:58.318Z,100649.81
2023-03-11T11:42:28.143Z,100709.31
2023-03-11T11:45:03.535Z,100707.00
2023-03-11T11:47:36.040Z,100710.09
2023-03-11T11:50:11.313Z,100715.69
2023-03-11T11:52:45.193Z,100712.47
2023-03-11T11:55:24.186Z,100710.78
2023-03-11T11:57:51.687Z,100713.16
2023-03-11T12:00:25.446Z,100702.91
2023-03-11T12:03:37.755Z,100672.88
2023-03-11T12:06:23.537Z,100665.09
2023-03-11T12:09:24.218Z,100702.66
2023-03-11T12:12:12.882Z,100701.03
2023-03-11T12:14:42.180Z,100718.22
2023-03-11T12:17:12.784Z,100720.06
2023-03-11T12:20:20.910Z,100690.34
2023-03-11T12:23:02.540Z,100717.59
2023-03-11T12:30:27.115Z,100709.38
2023-03-11T12:33:12.536Z,100677.88
2023-03-11T12:35:39.805Z,100704.69
2023-03-11T12:41:42.693Z,100708.97
2023-03-11T12:44:23.121Z,100711.81
2023-03-11T12:46:58.740Z,100717.81
2023-03-11T12:52:58.530Z,100704.28
2023-03-11T12:55:31.038Z,100728.44
2023-03-11T12:58:36.139Z,100731.78
2023-03-11T13:01:08.832Z,100732.53
2023-03-11T13:03:56.717Z,100730.78
2023-03-11T13:11:48.551Z,100695.97
2023-03-11T13:15:10.286Z,100702.00
2023-03-11T13:17:39.153Z,100705.63
2023-03-11T13:38:16.978Z,100711.97
2023-03-11T13:40:44.334Z,100714.72
2023-03-11T13:43:19.587Z,100721.59
2023-03-11T13:46:05.355Z,100707.91
2023-03-11T13:48:44.853Z,100708.81
2023-03-11T13:51:32.951Z,100690.50
2023-03-11T13:54:22.867Z,100721.25
2023-03-11T13:56:56.817Z,100727.88
2023-03-11T13:59:32.862Z,100726.97
2023-03-11T14:02:00.676Z,100730.66
2023-03-11T14:04:30.069Z,100704.09
2023-03-11T14:06:56.996Z,100728.03
2023-03-11T14:09:25.641Z,100693.13
2023-03-11T14:12:03.620Z,100699.78
2023-03-11T14:14:56.043Z,100730.63
2023-03-11T14:17:33.430Z,100690.16
2023-03-11T14:20:17.291Z,100714.19
2023-03-11T14:22:46.277Z,100701.75
2023-03-11T14:25:36.364Z,100732.91
2023-03-11T14:28:09.534Z,100714.16
2023-03-11T14:30:36.166Z,100720.94
2023-03-11T14:33:21.882Z,100713.75
2023-03-11T14:35:52.530Z,100733.81
2023-03-11T14:38:23.903Z,100740.94
2023-03-11T14:41:15.624Z,100742.63
2023-03-11T14:43:46.010Z,100736.50
2023-03-11T14:46:18.035Z,100742.72
2023-03-11T14:48:44.688Z,100745.19
2023-03-11T14:51:23.662Z,100743.16
2023-03-11T14:53:57.672Z,100738.72
2023-03-11T14:56:34.416Z,100737.34
2023-03-11T14:59:10.955Z,100739.28
2023-03-11T15:01:43.117Z,100741.47
2023-03-11T15:04:13.664Z,100737.38
2023-03-11T15:06:42.761Z,100733.63
2023-03-11T15:09:19.472Z,100737.53
2023-03-11T15:11:47.811Z,100741.28
2023-03-11T15:14:17.208Z,100745.25
2023-03-11T15:16:43.634Z,100746.72
2023-03-11T15:19:28.591Z,100744.25
2023-03-11T15:21:58.531Z,100748.50
2023-03-11T15:24:27.882Z,100742.03
2023-03-11T15:26:57.430Z,100748.34
2023-03-11T15:29:26.511Z,100753.72
2023-03-11T15:31:53.082Z,100742.72
2023-03-11T15:34:25.306Z,100746.81
2023-03-11T15:36:52.845Z,100747.75
2023-03-11T15:39:26.220Z,100750.13
2023-03-11T15:42:08.066Z,100749.38
2023-03-11T15:44:37.253Z,100737.28
2023-03-11T15:47:04.190Z,100748.81
2023-03-11T15:49:30.798Z,100756.81
2023-03-11T15:52:01.012Z,100755.56
2023-03-11T15:54:27.904Z,100752.72
2023-03-11T15:56:56.350Z,100745.16
2023-03-11T15:59:23.400Z,100752.56
2023-03-11T16:02:11.672Z,100724.94
2023-03-11T16:04:38.574Z,100701.31
2023-03-11T16:07:08.412Z,100762.22
2023-03-11T16:09:35.351Z,100742.75
2023-03-11T16:12:05.187Z,100754.34
2023-03-11T16:14:31.613Z,100767.22
2023-03-11T16:16:58.129Z,100769.44
2023-03-11T16:19:24.718Z,100766.94
2023-03-11T16:21:51.301Z,100770.34
2023-03-11T16:24:24.719Z,100754.22
2023-03-11T16:26:52.911Z,100766.06
2023-03-11T16:29:30.593Z,100766.06
2023-03-11T16:31:57.148Z,100769.44
2023-03-11T16:34:23.614Z,100767.09
2023-03-11T16:36:53.025Z,100767.09
2023-03-11T16:39:19.417Z,100764.31
2023-03-11T16:41:45.956Z,100770.34
2023-03-11T16:44:12.382Z,100767.47
2023-03-11T16:46:38.987Z,100756.59
2023-03-11T16:49:05.975Z,100766.59
2023-03-11T16:51:33.000Z,100761.28
2023-03-11T16:53:59.703Z,100772.66
2023-03-11T16:56:26.482Z,100774.81
2023-03-11T16:58:52.959Z,100782.59
2023-03-11T17:01:21.571Z,100782.91
2023-03-11T17:03:51.980Z,100777.41
2023-03-11T17:06:19.714Z,100783.16
2023-03-11T17:08:49.053Z,100779.63
2023-03-11T17:11:21.106Z,100786.44
2023-03-11T17:13:47.922Z,100780.16
2023-03-11T17:16:14.579Z,100791.44
2023-03-11T17:18:41.753Z,100785.81
2023-03-11T17:21:11.828Z,100790.53
2023-03-11T17:23:38.395Z,100773.38
2023-03-11T17:26:31.246Z,100796.47
2023-03-11T17:28:57.694Z,100786.13
2023-03-11T17:31:24.410Z,100801.09
2023-03-11T17:33:50.889Z,100806.66
2023-03-11T17:36:18.306Z,100794.47
2023-03-11T17:38:45.766Z,100798.94
2023-03-11T17:41:16.689Z,100774.56
2023-03-11T17:43:43.789Z,100749.75
2023-03-11T17:46:17.284Z,100782.81
2023-03-11T17:48:49.117Z,100788.31
2023-03-11T17:51:18.256Z,100806.59
2023-03-11T17:53:46.358Z,100812.66
2023-03-11T17:56:15.761Z,100806.44
2023-03-11T17:58:42.388Z,100817.41
2023-03-11T18:01:12.994Z,100808.03
2023-03-11T18:03:39.557Z,100810.38
2023-03-11T18:06:06.851Z,100821.81
2023-03-11T18:08:35.299Z,100821.22
2023-03-11T18:11:07.970Z,100827.69
2023-03-11T18:13:59.637Z,100823.38
2023-03-11T18:16:28.847Z,100796.59
2023-03-11T18:18:58.448Z,100817.72
2023-03-11T18:21:30.067Z,100830.56
2023-03-11T18:23:58.881Z,100825.25
